createdAt,value
2023-03-11T00:00:53.209Z,92.56
2023-03-11T00:03:27.479Z,91.56
2023-03-11T00:06:04.083Z,91.51
2023-03-11T00:08:36.366Z,91.52
2023-03-11T00:11:08.717Z,91.68
2023-03-11T00:13:41.174Z,91.88
2023-03-11T00:16:12.771Z,91.40
2023-03-11T00:18:44.584Z,91.59
2023-03-11T00:21:21.742Z,92.05
2023-03-11T00:23:53.629Z,91.85
2023-03-11T00:26:25.456Z,91.70
2023-03-11T00:28:57.261Z,91.46
2023-03-11T00:31:29.044Z,92.04
2023-03-11T00:34:01.058Z,92.88
2023-03-11T00:36:36.174Z,92.48
2023-03-11T00:39:11.060Z,92.74
2023-03-11T00:41:42.893Z,92.27
2023-03-11T00:44:14.706Z,92.51
2023-03-11T00:46:46.683Z,92.05
2023-03-11T00:49:18.561Z,92.60
2023-03-11T00:51:51.779Z,92.99
2023-03-11T00:54:23.673Z,93.42
2023-03-11T00:56:55.655Z,92.16
2023-03-11T00:59:27.464Z,92.56
2023-03-11T01:01:59.351Z,93.03
2023-03-11T01:04:31.269Z,92.29
2023-03-11T01:07:04.757Z,92.44
2023-03-11T01:09:36.631Z,92.11
2023-03-11T01:12:09.311Z,92.60
2023-03-11T01:14:41.211Z,92.28
2023-03-11T01:17:13.096Z,92.52
2023-03-11T01:19:45.348Z,92.10
2023-03-11T01:22:19.103Z,92.35
2023-03-11T01:24:51.025Z,92.04
2023-03-11T01:27:22.998Z,92.40
2023-03-11T01:29:54.804Z,92.01
2023-03-11T01:32:26.719Z,92.88
2023-03-11T01:34:58.671Z,91.87
2023-03-11T01:37:32.067Z,92.26
2023-03-11T01:40:03.922Z,91.84
2023-03-11T01:42:34.115Z,91.47
2023-03-11T01:45:19.758Z,91.40
2023-03-11T01:47:51.312Z,91.67
2023-03-11T01:50:23.451Z,92.24
2023-03-11T01:52:56.969Z,92.60
2023-03-11T01:55:30.037Z,91.27
2023-03-11T01:58:05.611Z,91.39
2023-03-11T02:00:38.430Z,90.76
2023-03-11T02:03:19.712Z,91.15
2023-03-11T02:05:55.628Z,90.83
2023-03-11T02:08:30.009Z,90.86
2023-03-11T02:11:03.138Z,90.25
2023-03-11T02:13:40.326Z,90.35
2023-03-11T02:16:13.986Z,91.05
2023-03-11T02:18:47.927Z,90.45
2023-03-11T02:21:27.934Z,90.68
2023-03-11T02:24:12.904Z,91.19
2023-03-11T02:26:51.981Z,90.58
2023-03-11T02:29:25.984Z,90.55
2023-03-11T02:31:59.541Z,89.98
2023-03-11T02:34:36.290Z,89.38
2023-03-11T02:37:11.568Z,89.40
2023-03-11T02:39:46.144Z,90.29
2023-03-11T02:42:24.778Z,89.70
2023-03-11T02:45:02.401Z,91.08
2023-03-11T02:47:35.692Z,91.01
2023-03-11T02:50:10.481Z,90.19
2023-03-11T02:52:42.252Z,90.71
2023-03-11T02:55:16.082Z,91.31
2023-03-11T02:57:49.421Z,91.03
2023-03-11T03:00:22.044Z,90.43
2023-03-11T03:02:54.019Z,90.01
2023-03-11T03:05:26.496Z,90.16
2023-03-11T03:07:58.326Z,90.88
2023-03-11T03:10:30.272Z,90.58
2023-03-11T03:13:03.173Z,90.63
2023-03-11T03:15:36.085Z,90.85
2023-03-11T03:18:07.920Z,90.24
2023-03-11T03:20:39.818Z,90.24
2023-03-11T03:23:11.587Z,91.30
2023-03-11T03:25:45.290Z,89.96
2023-03-11T03:28:18.554Z,90.10
2023-03-11T03:30:50.534Z,90.40
2023-03-11T03:33:22.390Z,90.64
2023-03-11T03:35:54.283Z,90.59
2023-03-11T03:38:25.980Z,91.21
2023-03-11T03:40:57.927Z,91.71
2023-03-11T03:43:31.045Z,91.20
2023-03-11T03:46:05.812Z,91.58
2023-03-11T03:48:38.140Z,91.78
2023-03-11T03:51:12.890Z,91.25
2023-03-11T03:53:46.413Z,92.22
2023-03-11T03:56:21.672Z,91.62
2023-03-11T03:58:55.087Z,91.59
2023-03-11T04:01:26.663Z,91.18
2023-03-11T04:03:58.562Z,91.48
2023-03-11T04:06:31.858Z,91.00
2023-03-11T04:09:03.741Z,91.78
2023-03-11T04:11:36.946Z,90.99
2023-03-11T04:14:10.385Z,91.33
2023-03-11T04:16:42.617Z,90.94
2023-03-11T04:19:14.788Z,90.31
2023-03-11T04:21:46.613Z,90.31
2023-03-11T04:24:18.436Z,89.77
2023-03-11T04:26:50.345Z,89.73
2023-03-11T04:29:23.285Z,90.71
2023-03-11T04:31:55.135Z,89.72
2023-03-11T04:34:26.931Z,89.98
2023-03-11T04:36:59.238Z,90.01
2023-03-11T04:39:31.042Z,90.81
2023-03-11T04:42:04.058Z,90.71
2023-03-11T04:44:38.436Z,89.63
2023-03-11T04:47:10.435Z,90.93
2023-03-11T04:49:42.488Z,89.92
2023-03-11T04:52:14.554Z,91.36
2023-03-11T04:54:46.490Z,90.67
2023-03-11T04:57:18.542Z,90.24
2023-03-11T04:59:51.772Z,90.76
2023-03-11T05:02:23.570Z,90.32
2023-03-11T05:04:55.396Z,91.43
2023-03-11T05:07:27.382Z,90.96
2023-03-11T05:09:59.150Z,90.32
2023-03-11T05:12:30.932Z,89.99
2023-03-11T05:15:04.250Z,90.69
2023-03-11T05:17:36.203Z,91.84
2023-03-11T05:20:09.294Z,91.30
2023-03-11T05:22:40.975Z,90.61
2023-03-11T05:25:13.648Z,91.07
2023-03-11T05:27:45.620Z,90.03
2023-03-11T05:30:19.632Z,89.81
2023-03-11T05:32:51.804Z,91.11
2023-03-11T05:35:23.882Z,90.56
2023-03-11T05:37:55.839Z,90.83
2023-03-11T05:40:27.457Z,91.30
2023-03-11T05:42:59.279Z,91.52
2023-03-11T05:45:32.250Z,92.13
2023-03-11T05:48:04.223Z,91.10
2023-03-11T05:50:36.095Z,91.86
2023-03-11T05:53:07.943Z,90.74
2023-03-11T05:55:39.784Z,91.01
2023-03-11T05:58:11.767Z,91.12
2023-03-11T06:00:44.909Z,91.46
2023-03-11T06:03:16.717Z,91.85
2023-03-11T06:05:52.674Z,90.63
2023-03-11T06:08:24.980Z,91.14
2023-03-11T06:11:04.785Z,91.22
2023-03-11T06:13:36.963Z,91.52
2023-03-11T06:16:09.959Z,91.33
2023-03-11T06:18:41.872Z,90.81
2023-03-11T06:21:18.749Z,91.52
2023-03-11T06:23:51.856Z,90.76
2023-03-11T06:26:26.502Z,91.71
2023-03-11T06:28:58.750Z,90.50
2023-03-11T06:31:34.868Z,91.27
2023-03-11T06:34:06.622Z,90.62
2023-03-11T06:36:38.528Z,90.75
2023-03-11T06:39:12.961Z,89.89
2023-03-11T06:41:44.843Z,89.67
2023-03-11T06:44:17.059Z,90.65
2023-03-11T06:46:50.245Z,89.37
2023-03-11T06:49:21.868Z,90.56
2023-03-11T06:51:53.726Z,89.91
2023-03-11T06:54:25.596Z,89.28
2023-03-11T06:56:57.397Z,89.12
2023-03-11T06:59:29.212Z,89.59
2023-03-11T07:02:02.455Z,89.88
2023-03-11T07:04:34.620Z,89.90
2023-03-11T07:07:06.175Z,89.45
2023-03-11T07:09:38.064Z,90.36
2023-03-11T07:12:10.859Z,89.46
2023-03-11T07:14:42.832Z,90.14
2023-03-11T07:17:15.793Z,90.17
2023-03-11T07:19:47.665Z,90.29
2023-03-11T07:22:20.056Z,90.46
2023-03-11T07:24:51.942Z,90.77
2023-03-11T07:27:23.741Z,90.19
2023-03-11T07:29:55.622Z,89.80
2023-03-11T07:32:28.664Z,90.05
2023-03-11T07:35:03.089Z,89.84
2023-03-11T07:37:34.917Z,89.84
2023-03-11T07:40:06.922Z,89.51
2023-03-11T07:42:40.325Z,89.79
2023-03-11T07:45:15.270Z,90.57
2023-03-11T07:47:48.254Z,89.63
2023-03-11T07:50:22.125Z,88.98
2023-03-11T07:52:53.736Z,89.36
2023-03-11T07:55:27.139Z,89.91
2023-03-11T07:57:59.038Z,89.70
2023-03-11T08:00:30.712Z,89.11
2023-03-11T08:03:03.889Z,88.53
2023-03-11T08:05:38.670Z,88.68
2023-03-11T08:08:12.088Z,89.82
2023-03-11T08:10:43.968Z,88.50
2023-03-11T08:13:15.828Z,88.94
2023-03-11T08:15:47.721Z,87.90
2023-03-11T08:18:20.749Z,89.64
2023-03-11T08:20:52.549Z,89.26
2023-03-11T08:23:24.371Z,88.67
2023-03-11T08:25:56.217Z,88.02
2023-03-11T08:28:28.126Z,88.25
2023-03-11T08:30:59.930Z,87.89
2023-03-11T08:33:32.931Z,88.92
2023-03-11T08:36:04.990Z,87.65
2023-03-11T08:38:36.880Z,87.83
2023-03-11T08:41:09.347Z,86.78
2023-03-11T08:43:42.248Z,86.51
2023-03-11T08:46:21.227Z,86.22
2023-03-11T08:48:55.310Z,85.38
2023-03-11T08:51:27.244Z,85.08
2023-03-11T08:53:59.242Z,84.83
2023-03-11T08:56:31.328Z,84.37
2023-03-11T08:59:03.569Z,85.36
2023-03-11T09:01:35.452Z,85.15
2023-03-11T09:04:09.671Z,84.81
2023-03-11T09:06:44.752Z,83.95
2023-03-11T09:09:20.330Z,84.56
2023-03-11T09:11:51.968Z,84.37
2023-03-11T09:14:23.789Z,83.48
2023-03-11T09:16:55.717Z,83.97
2023-03-11T09:19:28.897Z,83.98
2023-03-11T09:22:02.854Z,83.80
2023-03-11T09:24:36.082Z,83.18
2023-03-11T09:27:07.665Z,83.22
2023-03-11T09:29:39.657Z,83.49
2023-03-11T09:32:15.162Z,83.42
2023-03-11T09:34:48.101Z,83.56
2023-03-11T09:37:19.943Z,83.73
2023-03-11T09:39:51.844Z,82.71
2023-03-11T09:42:35.142Z,82.92
2023-03-11T09:45:16.581Z,83.61
2023-03-11T09:48:08.243Z,82.57
2023-03-11T09:50:52.830Z,82.24
2023-03-11T09:53:33.957Z,82.10
2023-03-11T09:56:10.402Z,81.82
2023-03-11T09:58:47.985Z,82.09
2023-03-11T10:01:27.573Z,81.91
2023-03-11T10:04:09.821Z,81.71
2023-03-11T10:06:46.020Z,82.06
2023-03-11T10:09:34.368Z,82.32
2023-03-11T10:12:19.462Z,82.07
2023-03-11T10:15:09.348Z,80.97
2023-03-11T10:18:02.183Z,80.84
2023-03-11T10:20:43.857Z,80.59
2023-03-11T10:23:33.690Z,80.24
2023-03-11T10:26:13.088Z,80.48
2023-03-11T10:28:52.113Z,79.94
2023-03-11T10:31:32.828Z,80.39
2023-03-11T10:34:15.489Z,80.06
2023-03-11T10:36:58.804Z,80.70
2023-03-11T10:39:33.703Z,80.20
2023-03-11T10:42:12.779Z,80.10
2023-03-11T10:44:46.743Z,79.20
2023-03-11T10:47:25.260Z,79.99
2023-03-11T10:49:57.182Z,80.40
2023-03-11T10:52:29.146Z,79.19
2023-03-11T10:55:07.223Z,78.72
2023-03-11T10:57:41.373Z,78.01
2023-03-11T11:00:29.021Z,78.40
2023-03-11T11:03:02.059Z,77.70
2023-03-11T11:05:37.811Z,78.81
2023-03-11T11:08:16.994Z,79.18
2023-03-11T11:10:59.542Z,78.86
2023-03-11T11:13:36.033Z,77.28
2023-03-11T11:16:20.808Z,77.07
2023-03-11T11:18:58.664Z,75.55
2023-03-11T11:21:39.277Z,76.33
2023-03-11T11:24:24.987Z,74.92
2023-03-11T11:27:20.348Z,75.38
2023-03-11T11:30:14.654Z,74.02
2023-03-11T11:32:46.483Z,74.29
2023-03-11T11:35:20.904Z,74.66
2023-03-11T11:37:56.668Z,74.75
2023-03-11T11:40:36.013Z,74.82
2023-03-11T11:43:18.025Z,74.38
2023-03-11T11:45:58.764Z,74.70
2023-03-11T11:48:43.990Z,74.42
2023-03-11T11:51:23.000Z,72.13
2023-03-11T11:54:02.659Z,70.79
2023-03-11T11:56:34.706Z,70.95
2023-03-11T11:59:10.597Z,71.32
2023-03-11T12:01:57.022Z,70.23
2023-03-11T12:04:50.346Z,67.52
2023-03-11T12:08:06.650Z,69.30
2023-03-11T12:10:45.164Z,69.02
2023-03-11T12:13:50.046Z,69.62
2023-03-11T12:16:37.768Z,67.66
2023-03-11T12:19:21.726Z,65.32
2023-03-11T12:22:28.115Z,65.82
2023-03-11T12:25:23.248Z,66.67
2023-03-11T12:27:59.509Z,66.00
2023-03-11T12:30:38.258Z,64.66
2023-03-11T12:33:19.752Z,65.19
2023-03-11T12:36:00.598Z,64.14
2023-03-11T12:38:37.721Z,64.72
2023-03-11T12:41:29.006Z,65.92
2023-03-11T12:44:14.105Z,62.77
2023-03-11T12:47:29.741Z,63.34
2023-03-11T12:50:40.669Z,63.03
2023-03-11T12:53:21.282Z,63.15
2023-03-11T12:56:14.671Z,64.55
2023-03-11T12:59:25.236Z,64.19
2023-03-11T13:02:14.736Z,64.08
2023-03-11T13:04:58.730Z,60.93
2023-03-11T13:08:01.074Z,63.58
2023-03-11T13:10:42.954Z,61.13
2023-03-11T13:13:39.919Z,62.38
2023-03-11T13:16:42.138Z,63.13
2023-03-11T13:19:38.859Z,61.84
2023-03-11T13:22:43.433Z,60.51
2023-03-11T13:25:32.027Z,62.28
2023-03-11T13:28:42.588Z,63.93
2023-03-11T13:31:40.158Z,61.36
2023-03-11T13:34:18.857Z,62.13
2023-03-11T13:37:13.756Z,61.01
2023-03-11T13:40:14.100Z,63.47
2023-03-11T13:42:51.776Z,61.20
2023-03-11T13:45:36.157Z,61.89
2023-03-11T13:48:15.885Z,62.63
2023-03-11T13:50:54.162Z,60.86
2023-03-11T13:53:31.085Z,58.95
2023-03-11T13:56:05.632Z,60.51
2023-03-11T13:58:37.184Z,61.34
2023-03-11T14:01:18.311Z,60.76
2023-03-11T14:03:52.773Z,59.18
2023-03-11T14:06:25.189Z,61.46
2023-03-11T14:09:01.091Z,59.17
2023-03-11T14:11:34.739Z,59.70
2023-03-11T14:14:36.317Z,58.81
2023-03-11T14:17:13.948Z,57.67
2023-03-11T14:20:07.600Z,56.72
2023-03-11T14:22:39.702Z,56.50
2023-03-11T14:25:20.751Z,57.13
2023-03-11T14:28:08.623Z,55.11
2023-03-11T14:30:42.096Z,56.02
2023-03-11T14:33:24.625Z,55.51
2023-03-11T14:36:01.477Z,57.10
2023-03-11T14:38:35.665Z,55.78
2023-03-11T14:41:14.206Z,57.77
2023-03-11T14:43:53.671Z,55.31
2023-03-11T14:46:30.861Z,57.77
2023-03-11T14:49:08.616Z,55.35
2023-03-11T14:51:42.333Z,58.45
2023-03-11T14:54:24.304Z,57.52
2023-03-11T14:57:05.552Z,56.48
2023-03-11T14:59:41.927Z,56.81
2023-03-11T15:02:35.689Z,55.26
2023-03-11T15:05:17.804Z,55.81
2023-03-11T15:07:51.678Z,57.27
2023-03-11T15:10:25.212Z,57.42
2023-03-11T15:13:11.731Z,56.79
2023-03-11T15:15:45.966Z,54.75
2023-03-11T15:18:27.254Z,55.72
2023-03-11T15:21:18.542Z,55.60
2023-03-11T15:23:53.871Z,55.03
2023-03-11T15:26:30.912Z,55.04
2023-03-11T15:29:13.956Z,55.39
2023-03-11T15:31:50.253Z,57.19
2023-03-11T15:34:35.129Z,55.87
2023-03-11T15:37:22.733Z,56.17
2023-03-11T15:39:58.423Z,56.12
2023-03-11T15:42:31.369Z,57.36
2023-03-11T15:45:30.127Z,56.77
2023-03-11T15:48:03.227Z,54.44
2023-03-11T15:50:52.406Z,56.52
2023-03-11T15:53:27.160Z,57.14
2023-03-11T15:56:07.981Z,56.53
2023-03-11T15:58:41.043Z,55.50
2023-03-11T16:01:12.904Z,58.30
2023-03-11T16:03:46.204Z,57.39
2023-03-11T16:06:18.151Z,57.34
2023-03-11T16:08:50.037Z,59.50
2023-03-11T16:11:22.429Z,56.70
2023-03-11T16:13:54.295Z,57.45
2023-03-11T16:16:26.438Z,57.79
2023-03-11T16:18:59.715Z,57.71
2023-03-11T16:21:41.147Z,59.05
2023-03-11T16:24:21.894Z,60.16
2023-03-11T16:26:56.784Z,59.79
2023-03-11T16:29:28.655Z,60.65
2023-03-11T16:32:00.501Z,61.56
2023-03-11T16:34:33.374Z,62.60
2023-03-11T16:37:05.302Z,61.41
2023-03-11T16:39:38.808Z,62.71
2023-03-11T16:42:10.831Z,62.41
2023-03-11T16:44:42.608Z,63.21
2023-03-11T16:47:14.442Z,63.25
2023-03-11T16:49:50.390Z,63.75
2023-03-11T16:52:23.422Z,63.30
2023-03-11T16:54:55.277Z,63.82
2023-03-11T16:57:27.122Z,64.50
2023-03-11T16:59:59.134Z,64.00
2023-03-11T17:02:31.269Z,64.32
2023-03-11T17:05:05.709Z,64.33
2023-03-11T17:07:39.903Z,63.80
2023-03-11T17:10:14.492Z,63.21
2023-03-11T17:12:46.376Z,63.61
2023-03-11T17:15:18.438Z,64.42
2023-03-11T17:17:51.432Z,64.58
2023-03-11T17:20:25.229Z,63.92
2023-03-11T17:22:57.109Z,63.79
2023-03-11T17:25:29.024Z,64.46
2023-03-11T17:28:01.017Z,63.25
2023-03-11T17:30:37.161Z,64.44
2023-03-11T17:33:12.441Z,63.97
2023-03-11T17:35:46.209Z,64.74
2023-03-11T17:38:19.580Z,64.75
2023-03-11T17:40:51.393Z,63.88
2023-03-11T17:43:25.297Z,64.50
2023-03-11T17:45:59.110Z,66.27
2023-03-11T17:48:30.919Z,65.05
2023-03-11T17:51:05.969Z,65.51
2023-03-11T17:53:38.078Z,65.76
2023-03-11T17:56:13.191Z,67.06
2023-03-11T17:58:45.104Z,66.61
2023-03-11T18:01:20.754Z,67.05
2023-03-11T18:03:53.664Z,67.53
2023-03-11T18:06:28.546Z,67.69
2023-03-11T18:09:00.335Z,67.66
2023-03-11T18:11:33.477Z,67.90
2023-03-11T18:14:07.197Z,68.99
2023-03-11T18:16:40.295Z,68.16
2023-03-11T18:19:12.463Z,68.20
2023-03-11T18:21:45.704Z,69.01
2023-03-11T18:24:17.925Z,68.84
2023-03-11T18:26:49.908Z,69.15
2023-03-11T18:29:21.945Z,69.70
2023-03-11T18:31:53.788Z,70.96
2023-03-11T18:34:25.662Z,70.49
2023-03-11T18:36:58.797Z,70.60
2023-03-11T18:39:30.747Z,70.24
2023-03-11T18:42:03.110Z,69.84
2023-03-11T18:44:36.918Z,69.47
2023-03-11T18:47:09.130Z,69.59
2023-03-11T18:49:41.029Z,70.07
2023-03-11T18:52:14.967Z,70.69
2023-03-11T18:54:47.030Z,70.24
2023-03-11T18:57:19.070Z,70.21
2023-03-11T18:59:52.435Z,71.04
2023-03-11T19:02:24.359Z,70.87
2023-03-11T19:04:56.420Z,70.83
2023-03-11T19:07:30.757Z,71.51
2023-03-11T19:10:02.627Z,71.01
2023-03-11T19:12:34.485Z,70.82
2023-03-11T19:15:06.556Z,71.44
2023-03-11T19:17:38.496Z,71.19
2023-03-11T19:20:12.932Z,70.60
2023-03-11T19:22:45.920Z,70.40
2023-03-11T19:25:19.115Z,70.41
2023-03-11T19:27:50.835Z,69.37
2023-03-11T19:30:22.940Z,69.55
2023-03-11T19:32:54.761Z,69.70
2023-03-11T19:35:27.717Z,69.95
2023-03-11T19:38:00.790Z,70.33
2023-03-11T19:40:33.412Z,69.95
2023-03-11T19:43:05.949Z,70.19
2023-03-11T19:45:39.676Z,70.42
2023-03-11T19:48:13.213Z,69.36
2023-03-11T19:50:45.320Z,69.74
2023-03-11T19:53:19.334Z,69.62
2023-03-11T19:55:54.365Z,70.09
2023-03-11T19:58:30.525Z,69.47
2023-03-11T20:01:03.863Z,69.46
2023-03-11T20:03:35.758Z,69.32
2023-03-11T20:06:13.434Z,69.72
2023-03-11T20:08:47.343Z,69.75
2023-03-11T20:11:19.350Z,69.93
2023-03-11T20:13:51.468Z,69.19
2023-03-11T20:16:24.166Z,70.50
2023-03-11T20:18:56.075Z,69.81
2023-03-11T20:21:28.076Z,70.20
2023-03-11T20:24:01.675Z,70.16
2023-03-11T20:26:33.642Z,70.71
2023-03-11T20:29:06.273Z,70.37
2023-03-11T20:31:38.164Z,70.88
2023-03-11T20:34:10.451Z,70.37
2023-03-11T20:36:42.648Z,70.90
2023-03-11T20:39:16.042Z,70.20
2023-03-11T20:41:47.805Z,70.70
2023-03-11T20:44:19.760Z,71.07
2023-03-11T20:46:51.882Z,70.88
2023-03-11T20:49:23.551Z,71.84
2023-03-11T20:51:55.592Z,71.30
2023-03-11T20:54:28.552Z,70.85
2023-03-11T20:57:00.484Z,71.03
2023-03-11T20:59:32.407Z,70.88
2023-03-11T21:02:06.330Z,71.66
2023-03-11T21:04:41.120Z,71.59
2023-03-11T21:07:13.062Z,71.69
2023-03-11T21:09:46.156Z,71.76
2023-03-11T21:12:18.299Z,72.03
2023-03-11T21:14:50.485Z,71.63
2023-03-11T21:17:22.575Z,72.14
2023-03-11T21:19:54.429Z,71.60
2023-03-11T21:22:26.310Z,71.07
2023-03-11T21:24:59.925Z,71.62
2023-03-11T21:27:31.813Z,71.92
2023-03-11T21:30:04.304Z,72.22
2023-03-11T21:32:36.346Z,71.18
2023-03-11T21:35:09.709Z,71.02
2023-03-11T21:37:41.641Z,71.58
2023-03-11T21:40:15.956Z,72.01
2023-03-11T21:42:47.851Z,71.69
2023-03-11T21:45:19.870Z,71.41
2023-03-11T21:47:51.827Z,72.43
2023-03-11T21:50:23.926Z,72.71
2023-03-11T21:52:55.673Z,72.10
2023-03-11T21:55:29.274Z,72.55
2023-03-11T21:58:01.013Z,72.42
2023-03-11T22:00:33.284Z,71.51
2023-03-11T22:03:05.088Z,71.21
2023-03-11T22:05:36.831Z,72.11
2023-03-11T22:08:09.068Z,72.34
2023-03-11T22:10:42.412Z,71.16
2023-03-11T22:13:14.292Z,70.86
2023-03-11T22:15:46.368Z,71.58
2023-03-11T22:18:18.048Z,70.67
2023-03-11T22:20:49.898Z,72.16
2023-03-11T22:23:21.668Z,72.84
2023-03-11T22:25:55.109Z,73.34
2023-03-11T22:28:27.267Z,72.37
2023-03-11T22:30:59.184Z,71.55
2023-03-11T22:33:31.408Z,70.83
2023-03-11T22:36:07.667Z,72.74
2023-03-11T22:38:42.231Z,72.07
2023-03-11T22:41:19.177Z,71.24
2023-03-11T22:43:51.011Z,71.38
2023-03-11T22:46:22.962Z,71.25
2023-03-11T22:48:54.855Z,71.64
2023-03-11T22:51:26.842Z,73.13
2023-03-11T22:53:58.670Z,72.70
2023-03-11T22:56:31.629Z,72.81
2023-03-11T22:59:03.569Z,72.69
2023-03-11T23:01:35.944Z,71.77
2023-03-11T23:04:07.837Z,71.55
2023-03-11T23:06:39.661Z,71.85
2023-03-11T23:09:11.586Z,71.38
2023-03-11T23:11:44.860Z,71.80
2023-03-11T23:14:16.979Z,71.15
2023-03-11T23:16:48.998Z,71.76
2023-03-11T23:19:20.786Z,72.64
2023-03-11T23:21:52.562Z,71.88
2023-03-11T23:24:24.591Z,72.42
2023-03-11T23:26:57.758Z,72.17
2023-03-11T23:29:29.766Z,72.27
2023-03-11T23:32:01.444Z,72.70
2023-03-11T23:34:33.268Z,72.65
2023-03-11T23:37:05.987Z,72.63
2023-03-11T23:39:37.614Z,72.52
2023-03-11T23:42:24.558Z,72.92
2023-03-11T23:44:57.796Z,72.57
2023-03-11T23:47:29.746Z,72.14
2023-03-11T23:50:03.150Z,73.00
2023-03-11T23:52:34.991Z,72.24
2023-03-11T23:55:08.417Z,71.81
2023-03-11T23:57:41.914Z,72.31
